LFTH

Toulon-Hyères Airport

Airport
ICAO code
LFTH
IATA Code
TLN
Summary
ICAO Region
EUR
ICAO Territory
Location

, Provence-Alpes-Cote d'Azur

Serving
Hyeres
Elevation
7 ft
Coordinates
43° 5' 50" N , 6° 8' 46" E
Metar
Observation
LFTH 091830Z AUTO 31003KT 9999 FEW026 SCT035 BKN041 13/12 Q0999 NOSIG
Station
Hyeres
Date/Time
2022-12-09 18:30:00
Wind direction
310°
Wind speed
03 kts
Lowest cloud amount
few clouds
Temperature
13°C
Dew point
12°C
Humidity
93%
QNH
999 hPa
Weather condition
n/a

Runways

Designator Length Width Surface Rops
14/32 1900 50 ASP Yes/Yes
5/23 2120 45 ASP Yes/Yes

Airport map

Aerial View

SKYbrary Partners:

Safety knowledge contributed by: